Time;durP1;ratioP1;P1;durP2;ratioP2;P2;SDS_P1;SDS_P2;PMS_P1;PMS_P2;Temp;Humidity;BMP_temperature;BMP_pressure;BME280_temperature;BME280_humidity;BME280_pressure;Samples;Min_cycle;Max_cycle;Signal;HPM_P1;HPM_P2
2022/06/23 00:03:01;;;;;;;13.60;5.78;;;19.10;59.00;;;;;;9183136;19;20015;-67
2022/06/23 00:06:10;;;;;;;11.57;4.97;;;19.10;59.10;;;;;;9184768;19;20021;-67
2022/06/23 00:09:31;;;;;;;11.57;4.85;;;19.00;59.20;;;;;;9180973;19;20011;-67
2022/06/23 00:12:41;;;;;;;14.15;4.82;;;19.00;59.50;;;;;;9179482;19;20017;-67
2022/06/23 00:15:48;;;;;;;11.65;5.68;;;18.90;59.90;;;;;;9183593;19;20010;-68
2022/06/23 00:18:54;;;;;;;12.63;4.28;;;18.80;59.40;;;;;;9183367;19;20021;-66
2022/06/23 00:21:59;;;;;;;12.75;4.95;;;18.80;60.00;;;;;;9183194;19;20010;-66
2022/06/23 00:25:07;;;;;;;8.30;4.30;;;18.80;59.50;;;;;;9184996;19;20017;-66
2022/06/23 00:28:25;;;;;;;13.77;4.60;;;18.70;59.70;;;;;;9183174;19;20360;-67
2022/06/23 00:31:36;;;;;;;11.77;4.90;;;18.70;60.00;;;;;;9182373;19;20014;-68
2022/06/23 00:34:47;;;;;;;16.05;4.82;;;18.60;59.90;;;;;;9181588;19;20010;-68
2022/06/23 00:37:54;;;;;;;10.35;4.63;;;18.60;59.90;;;;;;9183463;19;20013;-68
2022/06/23 00:41:02;;;;;;;16.17;5.55;;;18.50;59.90;;;;;;9183119;19;20010;-68
2022/06/23 00:44:10;;;;;;;11.20;4.40;;;18.40;60.00;;;;;;9182829;19;20014;-68
2022/06/23 00:47:21;;;;;;;10.75;4.53;;;18.40;60.10;;;;;;9183343;19;20956;-68
2022/06/23 00:50:30;;;;;;;11.07;4.65;;;18.30;60.30;;;;;;9183157;19;20018;-69
2022/06/23 00:53:40;;;;;;;10.35;4.57;;;18.20;60.30;;;;;;9181844;19;20048;-68
2022/06/23 00:56:50;;;;;;;14.40;4.75;;;18.20;60.40;;;;;;9181045;19;20010;-67
2022/06/23 01:00:00;;;;;;;11.10;5.43;;;18.10;60.50;;;;;;9182272;19;20081;-68
2022/06/23 01:03:19;;;;;;;14.73;5.07;;;18.10;60.60;;;;;;9180391;19;20019;-68
2022/06/23 01:06:32;;;;;;;11.13;5.30;;;18.10;61.00;;;;;;9180761;19;20017;-67
2022/06/23 01:09:44;;;;;;;14.93;5.15;;;18.00;60.80;;;;;;9182383;19;20017;-67
2022/06/23 01:12:55;;;;;;;9.10;4.85;;;18.00;61.00;;;;;;9176266;19;20018;-68
2022/06/23 01:16:07;;;;;;;12.68;5.20;;;17.90;60.90;;;;;;9181378;19;20368;-66
2022/06/23 01:19:42;;;;;;;10.25;4.97;;;17.90;61.10;;;;;;9182028;19;20067;-68
2022/06/23 01:23:21;;;;;;;7.70;4.68;;;17.80;61.40;;;;;;9178781;19;20018;-68
2022/06/23 01:26:47;;;;;;;16.75;5.43;;;17.80;61.30;;;;;;9179973;19;20014;-67
2022/06/23 01:30:00;;;;;;;8.75;4.35;;;17.80;61.40;;;;;;9181364;19;20026;-67
2022/06/23 01:33:16;;;;;;;14.52;5.55;;;17.70;61.40;;;;;;9182691;19;20025;-67
2022/06/23 01:36:26;;;;;;;11.18;5.35;;;17.70;61.40;;;;;;9179794;19;20014;-67
2022/06/23 01:39:41;;;;;;;10.80;4.57;;;17.60;61.50;;;;;;9180323;19;20365;-69
2022/06/23 01:42:52;;;;;;;10.82;5.03;;;17.60;61.70;;;;;;9182239;19;20011;-68
2022/06/23 01:46:05;;;;;;;10.82;5.38;;;17.50;61.70;;;;;;9180013;19;20028;-68
2022/06/23 01:49:18;;;;;;;10.98;5.57;;;17.50;61.90;;;;;;9181847;19;20364;-68
2022/06/23 01:52:24;;;;;;;10.45;5.80;;;17.50;62.00;;;;;;9179281;19;20014;-66
2022/06/23 01:55:48;;;;;;;10.60;5.53;;;17.40;61.90;;;;;;9179339;19;20014;-67
2022/06/23 01:59:01;;;;;;;8.35;5.38;;;17.40;62.10;;;;;;9179410;19;20472;-67
2022/06/23 02:02:28;;;;;;;11.43;5.63;;;17.40;62.20;;;;;;9178037;19;20021;-66
2022/06/23 02:05:39;;;;;;;10.27;5.15;;;17.40;62.40;;;;;;9175972;19;20026;-67
2022/06/23 02:08:49;;;;;;;8.48;4.97;;;17.30;62.20;;;;;;9178701;19;20013;-67
2022/06/23 02:11:56;;;;;;;10.57;5.47;;;17.30;62.30;;;;;;9176841;19;20481;-67
2022/06/23 02:15:07;;;;;;;11.23;5.53;;;17.30;62.40;;;;;;9179380;19;20021;-68
2022/06/23 02:18:21;;;;;;;7.88;5.00;;;17.30;62.50;;;;;;9176474;19;20017;-69
2022/06/23 02:21:32;;;;;;;11.03;5.60;;;17.20;62.70;;;;;;9180823;19;20018;-68
2022/06/23 02:24:46;;;;;;;12.48;5.60;;;17.20;62.60;;;;;;9180553;19;20022;-66
2022/06/23 02:27:57;;;;;;;12.63;5.68;;;17.20;62.70;;;;;;9179663;19;20093;-67
2022/06/23 02:31:09;;;;;;;8.90;5.32;;;17.10;62.70;;;;;;9179795;19;20038;-67
2022/06/23 02:34:23;;;;;;;11.88;5.25;;;17.10;62.90;;;;;;9182809;19;20022;-67
2022/06/23 02:37:53;;;;;;;10.13;5.65;;;17.10;63.60;;;;;;9186662;19;20333;-68
2022/06/23 02:41:05;;;;;;;11.23;5.35;;;17.10;63.20;;;;;;9187199;19;20014;-68
2022/06/23 02:44:29;;;;;;;10.75;5.95;;;17.00;62.90;;;;;;9187046;19;20430;-66
2022/06/23 02:47:47;;;;;;;12.20;5.23;;;17.00;63.30;;;;;;9187315;19;20027;-67
2022/06/23 02:51:11;;;;;;;11.57;5.60;;;16.90;63.20;;;;;;9188284;19;20037;-67
2022/06/23 02:54:34;;;;;;;12.40;5.60;;;16.90;63.40;;;;;;9187439;19;20018;-67
2022/06/23 02:57:42;;;;;;;10.50;5.25;;;16.90;63.40;;;;;;9183795;19;20003;-68
2022/06/23 03:00:51;;;;;;;15.18;5.72;;;16.90;63.30;;;;;;9188923;19;20010;-68
2022/06/23 03:04:04;;;;;;;12.10;5.38;;;16.80;63.30;;;;;;9184081;19;20033;-67
2022/06/23 03:07:20;;;;;;;10.02;5.80;;;16.80;63.60;;;;;;9185412;19;20018;-67
2022/06/23 03:10:31;;;;;;;11.93;5.05;;;16.80;63.50;;;;;;9187225;19;20029;-68
2022/06/23 03:13:44;;;;;;;9.65;5.45;;;16.70;63.50;;;;;;9187077;19;20018;-68
2022/06/23 03:16:55;;;;;;;10.32;5.57;;;16.70;63.70;;;;;;9186437;19;20029;-66
2022/06/23 03:20:05;;;;;;;10.70;6.05;;;16.70;63.70;;;;;;9185993;19;20379;-69
2022/06/23 03:23:28;;;;;;;10.27;5.25;;;16.70;63.80;;;;;;9185782;19;20090;-67
2022/06/23 03:26:41;;;;;;;12.20;5.63;;;16.60;64.00;;;;;;9185635;19;20019;-67
2022/06/23 03:29:53;;;;;;;14.85;5.97;;;16.60;64.00;;;;;;9186158;19;20018;-67
2022/06/23 03:33:03;;;;;;;8.80;5.28;;;16.60;64.00;;;;;;9184295;19;20023;-67
2022/06/23 03:36:24;;;;;;;14.23;5.30;;;16.60;64.00;;;;;;9186183;19;20125;-67
2022/06/23 03:42:56;;;;;;;;;;;16.50;64.40;;;;;;9188061;19;20014;-67
2022/06/23 03:46:07;;;;;;;11.00;5.85;;;16.40;63.90;;;;;;9184273;19;19911;-68
2022/06/23 03:49:20;;;;;;;12.23;5.95;;;16.40;64.00;;;;;;9184310;19;20026;-68
2022/06/23 03:52:36;;;;;;;9.40;5.30;;;16.40;64.30;;;;;;9185010;19;20356;-69
2022/06/23 03:55:49;;;;;;;10.25;5.72;;;16.30;64.50;;;;;;9184109;19;20025;-69
2022/06/23 03:59:00;;;;;;;14.63;5.72;;;16.30;64.60;;;;;;9183351;19;20025;-68
2022/06/23 04:02:13;;;;;;;10.13;5.45;;;16.30;64.70;;;;;;9183674;19;20022;-67
2022/06/23 04:05:24;;;;;;;14.15;5.30;;;16.30;64.70;;;;;;9181886;19;20479;-70
2022/06/23 04:08:33;;;;;;;9.02;5.72;;;16.30;64.90;;;;;;9186126;19;20006;-66
2022/06/23 04:11:50;;;;;;;13.18;5.03;;;16.30;65.00;;;;;;9182444;19;20450;-68
2022/06/23 04:15:00;;;;;;;9.43;5.43;;;16.30;65.30;;;;;;9183996;19;20020;-69
2022/06/23 04:18:09;;;;;;;16.25;5.97;;;16.30;65.10;;;;;;9181558;19;20026;-67
2022/06/23 04:21:18;;;;;;;10.93;5.65;;;16.30;65.20;;;;;;9183995;19;20044;-67
2022/06/23 04:24:27;;;;;;;11.60;5.50;;;16.30;65.30;;;;;;9184579;19;20018;-67
2022/06/23 04:27:45;;;;;;;10.82;4.97;;;16.30;65.40;;;;;;9185129;19;20021;-67
2022/06/23 04:30:51;;;;;;;9.15;5.40;;;16.30;65.60;;;;;;9184329;19;20021;-67
2022/06/23 04:33:57;;;;;;;10.80;6.07;;;16.30;65.40;;;;;;9182911;19;20395;-67
2022/06/23 04:37:03;;;;;;;13.90;5.80;;;16.40;65.50;;;;;;9182629;19;20033;-67
2022/06/23 04:40:17;;;;;;;13.05;6.10;;;16.40;65.60;;;;;;9182242;19;20468;-68
2022/06/23 04:43:34;;;;;;;14.23;6.28;;;16.40;65.70;;;;;;9183874;19;20041;-67
2022/06/23 04:46:43;;;;;;;15.25;6.38;;;16.40;65.90;;;;;;9184016;19;20019;-67
2022/06/23 04:49:53;;;;;;;12.85;6.25;;;16.40;65.80;;;;;;9180090;19;20365;-67
2022/06/23 04:53:00;;;;;;;12.82;6.05;;;16.40;65.90;;;;;;9182381;19;20467;-68
2022/06/23 04:56:11;;;;;;;11.70;6.20;;;16.40;65.90;;;;;;9180099;19;20007;-67
2022/06/23 04:59:30;;;;;;;13.43;6.07;;;16.40;66.10;;;;;;9181032;19;20347;-68
2022/06/23 05:02:42;;;;;;;10.55;5.45;;;16.40;66.20;;;;;;9182469;19;20015;-67
2022/06/23 05:05:55;;;;;;;16.35;6.20;;;16.50;66.10;;;;;;9181810;19;20366;-67
2022/06/23 05:09:04;;;;;;;11.47;6.30;;;16.50;66.00;;;;;;9183411;19;20087;-68
2022/06/23 05:12:21;;;;;;;8.77;5.32;;;16.50;66.10;;;;;;9176679;19;20018;-69
2022/06/23 05:15:35;;;;;;;9.90;5.97;;;16.50;66.40;;;;;;9180866;19;20025;-67
2022/06/23 05:18:45;;;;;;;13.35;5.75;;;16.60;66.40;;;;;;9177537;19;20371;-67
2022/06/23 05:21:54;;;;;;;13.88;6.60;;;16.60;66.30;;;;;;9180805;19;20019;-67
2022/06/23 05:25:03;;;;;;;11.60;6.70;;;16.70;66.40;;;;;;9175916;19;20017;-67
2022/06/23 05:28:14;;;;;;;13.25;6.20;;;16.70;66.40;;;;;;9179909;19;20014;-67
2022/06/23 05:31:27;;;;;;;12.05;6.32;;;16.80;66.50;;;;;;9181547;19;20011;-67
2022/06/23 05:34:36;;;;;;;11.00;6.25;;;16.80;66.60;;;;;;9179588;19;20048;-67
2022/06/23 05:37:50;;;;;;;13.88;6.68;;;16.90;66.60;;;;;;9179277;19;20014;-68
2022/06/23 05:40:58;;;;;;;14.17;5.80;;;17.00;66.80;;;;;;9177908;19;20022;-67
2022/06/23 05:44:07;;;;;;;13.07;6.55;;;17.10;66.60;;;;;;9177622;19;21093;-67
2022/06/23 05:47:17;;;;;;;13.90;5.75;;;17.20;66.70;;;;;;9172457;19;20014;-67
2022/06/23 05:50:27;;;;;;;18.33;6.55;;;17.30;66.80;;;;;;9174097;19;20022;-67
2022/06/23 05:53:37;;;;;;;11.00;6.32;;;17.50;67.40;;;;;;9174572;19;20022;-67
2022/06/23 05:56:50;;;;;;;11.05;6.30;;;17.60;66.90;;;;;;9176473;19;20019;-68
2022/06/23 06:00:03;;;;;;;12.85;5.38;;;17.80;66.90;;;;;;9174383;19;20026;-67
2022/06/23 06:03:19;;;;;;;11.40;6.30;;;18.00;66.70;;;;;;9180955;19;20463;-69
2022/06/23 06:06:24;;;;;;;10.27;5.97;;;18.20;66.60;;;;;;9176161;19;20044;-68
2022/06/23 06:09:41;;;;;;;9.90;5.05;;;18.40;66.40;;;;;;9182391;19;20464;-68
2022/06/23 06:12:50;;;;;;;9.73;5.28;;;18.50;66.40;;;;;;9181668;19;20022;-68
2022/06/23 06:15:57;;;;;;;12.15;5.63;;;18.70;66.30;;;;;;9182506;19;20030;-67
2022/06/23 06:19:05;;;;;;;9.50;5.10;;;18.90;66.10;;;;;;9182631;19;20026;-67
2022/06/23 06:22:45;;;;;;;10.95;5.28;;;19.10;66.00;;;;;;9183459;19;20092;-68
2022/06/23 06:25:52;;;;;;;8.88;5.53;;;19.30;65.90;;;;;;9179446;19;20019;-67
2022/06/23 06:29:01;;;;;;;14.85;5.45;;;19.50;65.60;;;;;;9182732;19;20022;-67
2022/06/23 06:32:27;;;;;;;9.60;4.97;;;19.70;65.60;;;;;;9182457;19;20019;-67
2022/06/23 06:35:41;;;;;;;7.97;4.70;;;19.90;66.20;;;;;;9180704;19;20360;-68
2022/06/23 06:38:46;;;;;;;12.13;5.40;;;20.10;65.30;;;;;;9183718;19;20660;-67
2022/06/23 06:41:56;;;;;;;10.23;4.50;;;20.30;65.00;;;;;;9186667;19;20482;-68
2022/06/23 06:45:06;;;;;;;9.07;4.10;;;20.60;65.00;;;;;;9186480;19;20022;-66
2022/06/23 06:48:16;;;;;;;10.55;4.40;;;20.80;64.80;;;;;;9185857;19;20015;-67
2022/06/23 06:51:29;;;;;;;9.10;4.40;;;21.00;64.60;;;;;;9188808;19;20023;-67
2022/06/23 06:54:42;;;;;;;11.30;4.25;;;21.20;64.30;;;;;;9186134;19;20538;-67
2022/06/23 06:57:53;;;;;;;12.52;4.60;;;21.50;64.10;;;;;;9186363;19;20017;-66
2022/06/23 07:01:03;;;;;;;10.88;3.85;;;21.70;63.80;;;;;;9185129;19;20019;-67
2022/06/23 07:04:12;;;;;;;8.15;4.07;;;21.90;63.60;;;;;;9184083;19;20468;-68
2022/06/23 07:07:23;;;;;;;6.03;3.90;;;22.10;63.20;;;;;;9186857;19;20046;-67
2022/06/23 07:10:36;;;;;;;14.98;4.25;;;22.30;63.00;;;;;;9185587;19;20494;-65
2022/06/23 07:13:48;;;;;;;6.63;3.53;;;22.50;62.80;;;;;;9183538;19;20018;-68
2022/06/23 07:16:59;;;;;;;6.78;3.53;;;22.70;62.50;;;;;;9183337;19;20022;-68
2022/06/23 07:20:12;;;;;;;9.52;3.72;;;22.90;62.20;;;;;;9168587;19;20015;-67
2022/06/23 07:23:24;;;;;;;5.10;3.42;;;23.20;62.20;;;;;;9174272;19;20380;-67
2022/06/23 07:26:43;;;;;;;9.88;3.35;;;23.40;61.70;;;;;;9178541;19;20015;-68
2022/06/23 07:29:57;;;;;;;7.75;3.00;;;23.60;61.20;;;;;;9180116;19;20018;-69
2022/06/23 07:33:04;;;;;;;;;;;23.80;61.10;;;;;;9181762;19;20019;-69
2022/06/23 07:36:19;;;;;;;9.32;4.05;;;24.00;61.10;;;;;;9179117;19;19922;-69
2022/06/23 07:39:31;;;;;;;10.02;3.30;;;24.20;60.70;;;;;;9180474;19;20496;-68
2022/06/23 07:42:47;;;;;;;5.25;3.22;;;24.40;60.30;;;;;;9185035;19;20018;-68
2022/06/23 07:45:56;;;;;;;4.30;3.13;;;24.60;60.00;;;;;;9183310;19;20014;-67
2022/06/23 07:49:01;;;;;;;8.05;3.63;;;24.80;59.80;;;;;;9182725;19;20029;-68
2022/06/23 07:52:08;;;;;;;4.07;2.42;;;25.00;59.60;;;;;;9185189;19;20512;-69
2022/06/23 07:55:21;;;;;;;5.80;2.78;;;25.20;59.30;;;;;;9182287;19;20355;-75
2022/06/23 07:58:49;;;;;;;8.40;3.00;;;25.40;59.00;;;;;;9182935;19;20027;-76
2022/06/23 08:01:59;;;;;;;11.45;3.10;;;25.60;58.80;;;;;;9186324;19;20363;-75
2022/06/23 08:05:09;;;;;;;4.97;2.70;;;25.80;58.40;;;;;;9181781;19;20015;-68
2022/06/23 08:08:21;;;;;;;6.82;2.70;;;26.00;58.20;;;;;;9182660;19;20022;-66
2022/06/23 08:18:37;;;;;;;6.82;2.70;;;26.50;57.30;;;;;;9183080;19;20018;-68
2022/06/23 08:21:46;;;;;;;5.95;2.65;;;26.70;57.20;;;;;;9184083;19;20015;-67
2022/06/23 08:24:55;;;;;;;9.25;2.30;;;26.90;56.90;;;;;;9182792;19;20468;-68
2022/06/23 08:28:26;;;;;;;8.38;3.00;;;27.10;56.60;;;;;;9182272;19;20052;-69
2022/06/23 08:31:33;;;;;;;6.80;2.67;;;27.30;56.30;;;;;;9174917;19;20062;-67
2022/06/23 08:35:05;;;;;;;5.75;2.28;;;27.50;56.00;;;;;;9172365;19;20014;-66
2022/06/23 08:38:12;;;;;;;4.45;2.38;;;27.70;55.70;;;;;;9181817;19;20007;-69
2022/06/23 08:41:27;;;;;;;6.22;2.83;;;27.80;55.60;;;;;;9179621;19;20022;-68
2022/06/23 08:44:58;;;;;;;;;;;28.00;55.20;;;;;;9184699;19;20022;-68
2022/06/23 08:48:07;;;;;;;7.78;2.42;;;28.20;55.70;;;;;;9180551;19;19922;-68
2022/06/23 08:51:20;;;;;;;6.95;2.40;;;28.40;55.30;;;;;;9182113;19;20014;-67
2022/06/23 08:54:31;;;;;;;6.95;2.00;;;28.50;54.80;;;;;;9179143;19;20019;-67
2022/06/23 08:57:40;;;;;;;7.97;2.40;;;28.70;54.60;;;;;;9179427;19;20343;-69
2022/06/23 09:00:56;;;;;;;8.98;2.83;;;28.80;54.30;;;;;;9179038;19;20026;-68
2022/06/23 09:04:12;;;;;;;2.95;2.05;;;29.00;53.80;;;;;;9180691;19;20021;-69
2022/06/23 09:07:29;;;;;;;5.43;2.10;;;29.10;53.50;;;;;;9181142;19;20082;-68
2022/06/23 09:10:44;;;;;;;3.47;2.00;;;29.30;53.40;;;;;;9178172;19;20085;-72
2022/06/23 09:14:06;;;;;;;5.13;2.08;;;29.50;53.10;;;;;;9180959;19;20022;-69
2022/06/23 09:17:45;;;;;;;5.55;2.08;;;29.60;52.80;;;;;;9181497;19;20021;-68
2022/06/23 09:21:06;;;;;;;6.40;2.03;;;29.70;52.50;;;;;;9179028;19;20034;-70
2022/06/23 09:24:59;;;;;;;8.57;2.42;;;29.90;52.50;;;;;;9180619;19;20429;-73
2022/06/23 09:28:18;;;;;;;5.93;2.33;;;30.10;52.10;;;;;;9177840;19;20023;-67
2022/06/23 09:31:31;;;;;;;7.25;2.05;;;30.20;51.90;;;;;;9179083;19;20019;-68
2022/06/23 09:34:58;;;;;;;8.20;2.23;;;30.40;51.90;;;;;;9182235;19;20030;-69
2022/06/23 09:38:26;;;;;;;5.90;2.45;;;30.50;51.50;;;;;;9176943;19;20464;-68
2022/06/23 09:41:54;;;;;;;14.85;3.05;;;30.70;51.50;;;;;;9177523;19;20013;-70
2022/06/23 09:45:12;;;;;;;5.55;2.03;;;30.90;51.20;;;;;;9178356;19;20022;-71
2022/06/23 09:48:47;;;;;;;5.40;2.08;;;31.00;51.10;;;;;;9179870;19;20403;-70
2022/06/23 09:52:33;;;;;;;7.70;2.42;;;31.20;50.80;;;;;;9180929;19;20013;-70
2022/06/23 09:56:10;;;;;;;8.23;2.30;;;31.30;50.70;;;;;;9180149;19;20024;-70
2022/06/23 09:59:35;;;;;;;5.65;1.90;;;31.50;50.50;;;;;;9178000;19;20754;-70
2022/06/23 10:03:08;;;;;;;5.95;2.72;;;31.60;50.70;;;;;;9179967;19;20019;-70
2022/06/23 10:06:41;;;;;;;5.53;2.50;;;31.70;49.80;;;;;;9176350;19;20014;-68
2022/06/23 10:10:13;;;;;;;11.05;2.15;;;31.90;49.80;;;;;;9178868;19;20033;-68
2022/06/23 10:13:56;;;;;;;6.15;1.95;;;32.00;49.70;;;;;;9175589;19;20054;-69
2022/06/23 10:17:22;;;;;;;9.77;2.72;;;32.10;49.50;;;;;;9174367;19;20369;-69
2022/06/23 10:20:59;;;;;;;3.97;2.13;;;32.20;49.30;;;;;;9177837;19;20011;-69
2022/06/23 10:24:25;;;;;;;6.25;2.15;;;32.40;49.20;;;;;;9175623;19;20015;-68
2022/06/23 10:28:22;;;;;;;4.28;1.80;;;32.50;48.90;;;;;;9177070;19;20022;-70
2022/06/23 10:31:41;;;;;;;8.82;2.05;;;32.60;48.90;;;;;;9179811;19;20652;-69
2022/06/23 10:35:02;;;;;;;8.38;1.98;;;32.70;48.70;;;;;;9180520;19;20455;-72
2022/06/23 10:38:24;;;;;;;7.70;2.33;;;32.80;48.40;;;;;;9176795;19;20027;-70
2022/06/23 10:41:48;;;;;;;9.63;2.30;;;32.90;48.10;;;;;;9177214;19;20043;-73
2022/06/23 10:45:18;;;;;;;4.43;1.83;;;33.00;47.80;;;;;;9178967;19;20014;-70
2022/06/23 10:48:45;;;;;;;6.22;1.85;;;33.10;47.50;;;;;;9175388;19;20025;-71
2022/06/23 10:52:14;;;;;;;6.28;1.98;;;33.10;47.40;;;;;;9178547;19;20025;-74
2022/06/23 10:55:54;;;;;;;5.50;1.77;;;33.20;47.30;;;;;;9183412;19;20018;-74
2022/06/23 10:59:12;;;;;;;8.18;1.80;;;33.30;47.30;;;;;;9185900;19;20016;-71
2022/06/23 11:02:55;;;;;;;2.60;1.52;;;33.40;47.10;;;;;;9182923;19;20399;-74
2022/06/23 11:06:32;;;;;;;4.65;1.90;;;33.50;47.00;;;;;;9184512;19;20018;-71
2022/06/23 11:09:53;;;;;;;3.95;1.83;;;33.60;46.70;;;;;;9186195;19;20019;-73
2022/06/23 11:13:07;;;;;;;7.82;2.20;;;33.70;46.60;;;;;;9182837;19;20019;-74
2022/06/23 11:16:34;;;;;;;3.67;1.67;;;33.70;46.30;;;;;;9185346;19;20392;-72
2022/06/23 11:19:52;;;;;;;4.55;1.70;;;33.80;46.10;;;;;;9182892;19;20018;-73
2022/06/23 11:23:04;;;;;;;4.00;1.58;;;33.80;45.90;;;;;;9183046;19;20022;-75
2022/06/23 11:26:21;;;;;;;4.55;1.98;;;33.90;45.80;;;;;;9182970;19;20010;-73
2022/06/23 11:29:57;;;;;;;3.17;1.67;;;33.90;45.40;;;;;;9184887;19;20021;-70
2022/06/23 11:33:30;;;;;;;3.20;1.92;;;34.00;45.30;;;;;;9186091;19;20585;-69
2022/06/23 11:37:05;;;;;;;5.85;1.77;;;34.00;45.00;;;;;;9185026;19;20015;-67
2022/06/23 11:40:25;;;;;;;7.35;1.67;;;34.00;44.90;;;;;;9183623;19;20018;-67
2022/06/23 11:43:42;;;;;;;3.88;1.70;;;34.00;44.80;;;;;;9185029;19;20010;-67
2022/06/23 11:46:56;;;;;;;7.20;1.90;;;34.10;44.70;;;;;;9183575;19;20029;-67
2022/06/23 11:50:13;;;;;;;9.63;1.90;;;34.10;44.60;;;;;;9183290;19;20030;-68
2022/06/23 11:53:44;;;;;;;3.20;1.50;;;34.10;44.40;;;;;;9179442;19;20371;-67
2022/06/23 11:57:02;;;;;;;4.97;1.80;;;34.20;44.20;;;;;;9177426;19;20716;-67
2022/06/23 12:00:10;;;;;;;3.95;1.73;;;34.30;44.30;;;;;;9177815;19;20026;-69
2022/06/23 12:03:56;;;;;;;6.72;1.95;;;34.40;44.10;;;;;;9174915;19;20037;-67
2022/06/23 12:07:31;;;;;;;4.80;1.77;;;34.40;43.70;;;;;;9176035;19;20017;-67
2022/06/23 12:10:40;;;;;;;6.80;1.50;;;34.40;43.70;;;;;;9172502;19;20029;-69
2022/06/23 12:13:45;;;;;;;5.65;1.80;;;34.40;43.60;;;;;;9179830;19;20029;-68
2022/06/23 12:16:55;;;;;;;4.90;1.88;;;34.50;43.70;;;;;;9183299;19;20018;-68
2022/06/23 12:20:06;;;;;;;4.80;1.60;;;34.50;43.60;;;;;;9179280;19;20018;-67
2022/06/23 12:23:18;;;;;;;4.43;2.17;;;34.60;43.40;;;;;;9181363;19;20022;-67
2022/06/23 12:26:30;;;;;;;4.53;2.05;;;34.60;43.10;;;;;;9181233;19;20022;-69
2022/06/23 12:29:40;;;;;;;3.88;1.95;;;34.60;43.00;;;;;;9180842;19;20014;-67
2022/06/23 12:32:51;;;;;;;4.60;1.88;;;34.70;43.00;;;;;;9177150;19;20681;-67
2022/06/23 12:36:10;;;;;;;7.18;1.65;;;34.70;43.00;;;;;;9182403;19;20349;-69
2022/06/23 12:39:21;;;;;;;9.93;2.25;;;34.70;42.80;;;;;;9179017;19;20677;-67
2022/06/23 12:42:34;;;;;;;6.53;1.88;;;34.70;42.70;;;;;;9177514;19;20014;-67
2022/06/23 12:46:10;;;;;;;2.90;1.50;;;34.80;42.50;;;;;;9179565;19;20022;-68
2022/06/23 12:49:31;;;;;;;3.83;2.10;;;34.80;42.40;;;;;;9178121;19;20022;-67
2022/06/23 12:52:49;;;;;;;5.90;1.77;;;34.90;42.30;;;;;;9180521;19;20018;-68
2022/06/23 12:56:10;;;;;;;3.72;1.75;;;34.90;42.30;;;;;;9177623;19;20019;-68
2022/06/23 12:59:28;;;;;;;5.00;1.92;;;34.90;42.20;;;;;;9178918;19;20752;-71
2022/06/23 13:02:37;;;;;;;6.88;2.00;;;35.00;42.10;;;;;;9177881;19;20021;-71
2022/06/23 13:05:52;;;;;;;6.95;2.13;;;35.00;42.10;;;;;;9177466;19;20438;-72
2022/06/23 13:09:05;;;;;;;5.30;1.80;;;35.00;42.10;;;;;;9180403;19;20381;-71
2022/06/23 13:12:16;;;;;;;7.68;1.70;;;35.00;42.00;;;;;;9176134;19;20383;-72
2022/06/23 13:15:38;;;;;;;7.00;1.75;;;35.10;42.00;;;;;;9180571;19;20014;-73
2022/06/23 13:18:49;;;;;;;3.60;1.77;;;35.10;41.60;;;;;;9180854;19;20051;-74
2022/06/23 13:22:03;;;;;;;4.53;2.05;;;35.10;41.70;;;;;;9179613;19;20026;-73
2022/06/23 13:25:09;;;;;;;6.47;1.80;;;35.10;41.60;;;;;;9182936;19;20029;-73
2022/06/23 13:28:28;;;;;;;4.90;2.17;;;35.10;41.60;;;;;;9181801;19;20018;-76
2022/06/23 13:31:44;;;;;;;7.80;2.03;;;35.10;41.50;;;;;;9180188;19;20360;-72
2022/06/23 13:34:58;;;;;;;8.73;2.10;;;35.10;41.40;;;;;;9182183;19;20484;-71
2022/06/23 13:38:11;;;;;;;4.88;2.40;;;35.10;41.30;;;;;;9182406;19;20830;-75
2022/06/23 13:41:20;;;;;;;;;;;35.10;41.40;;;;;;9182691;19;20010;-73
2022/06/23 13:44:32;;;;;;;5.28;2.00;;;35.10;41.90;;;;;;9179876;19;19919;-73
2022/06/23 13:47:55;;;;;;;6.07;1.80;;;35.20;41.60;;;;;;9182220;19;20021;-71
2022/06/23 13:51:06;;;;;;;5.70;2.00;;;35.20;41.50;;;;;;9180448;19;20011;-72
2022/06/23 13:54:20;;;;;;;5.68;1.88;;;35.10;41.40;;;;;;9181934;19;20048;-70
2022/06/23 13:57:33;;;;;;;5.88;2.00;;;35.20;41.40;;;;;;9177207;19;20029;-70
2022/06/23 14:00:45;;;;;;;4.55;2.17;;;35.10;41.40;;;;;;9174575;19;20025;-70
2022/06/23 14:04:00;;;;;;;4.00;2.20;;;35.10;41.20;;;;;;9176315;19;20019;-72
2022/06/23 14:07:12;;;;;;;4.68;2.33;;;35.10;41.20;;;;;;9173151;19;20018;-72
2022/06/23 14:10:27;;;;;;;5.68;2.45;;;35.00;41.40;;;;;;9178847;19;20019;-73
2022/06/23 14:13:40;;;;;;;6.70;2.72;;;35.00;41.40;;;;;;9173246;19;20019;-73
2022/06/23 14:16:51;;;;;;;4.10;2.53;;;35.10;41.40;;;;;;9179755;19;20014;-71
2022/06/23 14:20:03;;;;;;;5.43;2.40;;;35.10;41.30;;;;;;9177851;19;20014;-71
2022/06/23 14:23:16;;;;;;;9.63;2.28;;;35.00;41.10;;;;;;9174933;19;20014;-69
2022/06/23 14:26:25;;;;;;;;;;;35.00;41.00;;;;;;9179280;19;20014;-72
2022/06/23 14:29:39;;;;;;;3.65;1.85;;;34.90;41.40;;;;;;9177759;19;19930;-71
2022/06/23 14:32:50;;;;;;;8.27;2.65;;;34.80;41.10;;;;;;9186811;19;20025;-71
2022/06/23 14:36:04;;;;;;;6.13;2.10;;;34.70;41.10;;;;;;9188434;19;20027;-72
2022/06/23 14:39:19;;;;;;;10.82;2.30;;;34.70;41.10;;;;;;9186110;19;20026;-71
2022/06/23 14:43:01;;;;;;;6.55;1.90;;;34.60;41.10;;;;;;9184518;19;20006;-71
2022/06/23 14:46:20;;;;;;;6.68;3.10;;;34.50;41.20;;;;;;9186409;19;20006;-72
2022/06/23 14:49:55;;;;;;;5.43;1.98;;;34.50;41.20;;;;;;9185217;19;20029;-69
2022/06/23 14:53:12;;;;;;;4.22;2.28;;;34.50;41.30;;;;;;9184811;19;20022;-69
2022/06/23 14:56:25;;;;;;;5.05;2.22;;;34.40;41.20;;;;;;9185747;19;20018;-70
2022/06/23 14:59:37;;;;;;;9.40;2.05;;;34.40;41.30;;;;;;9185198;19;20018;-70
2022/06/23 15:02:50;;;;;;;6.15;2.53;;;34.30;41.20;;;;;;9184773;19;20025;-69
2022/06/23 15:06:01;;;;;;;9.27;2.15;;;34.30;41.20;;;;;;9187505;19;20022;-68
2022/06/23 15:09:16;;;;;;;11.30;2.42;;;34.30;41.20;;;;;;9181533;19;20030;-72
2022/06/23 15:12:26;;;;;;;14.23;2.60;;;34.30;41.10;;;;;;9181240;19;20019;-68
2022/06/23 15:15:41;;;;;;;3.83;2.10;;;34.30;41.20;;;;;;9184727;19;20018;-70
2022/06/23 15:18:52;;;;;;;3.65;1.95;;;34.30;41.20;;;;;;9182813;19;20849;-70
2022/06/23 15:25:36;;;;;;;9.65;2.45;;;34.30;41.20;;;;;;9182768;19;20320;-74
2022/06/23 15:28:49;;;;;;;7.03;3.58;;;34.30;41.10;;;;;;9181763;19;20018;-70
2022/06/23 15:32:02;;;;;;;8.07;2.28;;;34.20;41.20;;;;;;9181692;19;20489;-70
2022/06/23 15:35:22;;;;;;;6.20;2.15;;;34.20;41.00;;;;;;9181547;19;20015;-68
2022/06/23 15:38:38;;;;;;;3.45;1.98;;;34.10;41.10;;;;;;9179890;19;20019;-67
2022/06/23 15:41:57;;;;;;;7.65;2.22;;;34.10;41.10;;;;;;9178627;19;20519;-66
2022/06/23 15:45:15;;;;;;;6.03;2.30;;;34.00;41.10;;;;;;9183811;19;20368;-66
2022/06/23 15:48:25;;;;;;;3.83;2.22;;;33.90;41.10;;;;;;9184105;19;20027;-66
2022/06/23 15:51:40;;;;;;;6.30;2.25;;;33.90;40.90;;;;;;9181660;19;20019;-67
2022/06/23 15:54:50;;;;;;;4.32;2.10;;;34.00;40.90;;;;;;9178530;19;20014;-66
2022/06/23 15:58:02;;;;;;;3.33;2.15;;;33.90;40.80;;;;;;9181211;19;20018;-67
2022/06/23 16:01:17;;;;;;;10.38;2.97;;;33.90;40.80;;;;;;9178691;19;20026;-73
2022/06/23 16:04:26;;;;;;;12.25;7.63;;;34.00;41.10;;;;;;9177617;19;20038;-73
2022/06/23 16:07:33;;;;;;;18.48;7.78;;;33.90;40.90;;;;;;9178369;19;20022;-70
2022/06/23 16:10:42;;;;;;;6.85;5.05;;;33.90;40.80;;;;;;9176385;19;20015;-71
2022/06/23 16:13:58;;;;;;;12.88;2.65;;;33.90;40.80;;;;;;9180855;19;20010;-71
2022/06/23 16:17:07;;;;;;;5.90;2.40;;;33.90;40.70;;;;;;9181704;19;20018;-70
2022/06/23 16:20:16;;;;;;;4.30;2.00;;;33.90;40.70;;;;;;9181201;19;20025;-71
2022/06/23 16:23:28;;;;;;;4.80;2.22;;;33.90;40.70;;;;;;9182666;19;20115;-74
2022/06/23 16:26:39;;;;;;;8.45;1.98;;;33.90;40.70;;;;;;9183478;19;20029;-73
2022/06/23 16:29:52;;;;;;;3.88;1.90;;;33.80;40.70;;;;;;9181184;19;20498;-71
2022/06/23 16:33:03;;;;;;;4.30;1.90;;;33.80;40.60;;;;;;9182789;19;20030;-72
2022/06/23 16:36:19;;;;;;;3.97;2.00;;;33.80;40.60;;;;;;9177840;19;20015;-72
2022/06/23 16:39:30;;;;;;;6.07;2.25;;;33.80;40.60;;;;;;9180247;19;20036;-68
2022/06/23 16:42:51;;;;;;;2.75;1.98;;;33.80;40.70;;;;;;9181055;19;20024;-70
2022/06/23 16:46:12;;;;;;;9.05;2.80;;;33.70;40.60;;;;;;9177880;19;20482;-70
2022/06/23 16:49:22;;;;;;;4.95;1.80;;;33.70;40.60;;;;;;9178428;19;20455;-71
2022/06/23 16:52:45;;;;;;;5.47;2.10;;;33.60;40.50;;;;;;9178910;19;20018;-69
2022/06/23 16:55:58;;;;;;;16.05;2.08;;;33.60;40.40;;;;;;9179948;19;20018;-69
2022/06/23 16:59:11;;;;;;;4.63;1.87;;;33.60;40.50;;;;;;9180805;19;20021;-71
2022/06/23 17:02:28;;;;;;;12.07;4.20;;;33.50;40.50;;;;;;9181575;19;20467;-69
2022/06/23 17:05:39;;;;;;;6.35;2.00;;;33.50;40.50;;;;;;9175674;19;20014;-72
2022/06/23 17:08:54;;;;;;;5.95;2.33;;;33.40;40.60;;;;;;9180335;19;20098;-71